Terminal Aerodrome Forecast
Issued by NWS

Current Version | Previous Version | Text Only | Print | Product List | Glossary On
Versions: 1 2 3 4 5 6 7 8 9 10 11 12 13 14 15 16 17 18 19 20 21 22 23 24 25 26 27 28 29 30 31 32 33 34 35 36 37 38
000
FTAK31 PANC 202331
TAFASN
TAF
PASN 202331Z 2100/2124 VRB05KT P6SM SCT015 BKN025 OVC040
     FM210900 09018KT P6SM SCT015 OVC025
     FM212100 08020G28KT 5SM -RASN BR OVC015=

USA.gov is the U.S. government's official web portal to all federal, state and local government web resources and services.